createdAt,value
2019-03-26T00:00:54.447Z,2.46
2019-03-26T00:03:26.067Z,2.53
2019-03-26T00:05:57.838Z,2.62
2019-03-26T00:08:29.440Z,2.63
2019-03-26T00:11:00.810Z,2.65
2019-03-26T00:13:32.473Z,2.67
2019-03-26T00:16:06.586Z,2.71
2019-03-26T00:18:38.130Z,2.76
2019-03-26T00:21:09.398Z,2.72
2019-03-26T00:23:40.622Z,2.76
2019-03-26T00:26:12.521Z,2.77
2019-03-26T00:28:43.922Z,2.78
2019-03-26T00:31:15.277Z,2.80
2019-03-26T00:33:46.649Z,2.64
2019-03-26T00:36:17.995Z,2.53
2019-03-26T00:38:49.597Z,2.41
2019-03-26T00:41:21.270Z,2.32
2019-03-26T00:43:52.837Z,2.29
2019-03-26T00:46:24.185Z,2.19
2019-03-26T00:48:55.567Z,2.19
2019-03-26T00:51:27.198Z,2.22
2019-03-26T00:54:01.756Z,2.22
2019-03-26T00:56:33.163Z,2.23
2019-03-26T00:59:04.824Z,2.25
2019-03-26T01:01:36.309Z,2.24
2019-03-26T01:04:08.576Z,2.21
2019-03-26T01:06:39.744Z,2.14
2019-03-26T01:09:11.213Z,2.01
2019-03-26T01:11:42.775Z,1.93
2019-03-26T01:14:14.221Z,1.77
2019-03-26T01:16:45.857Z,1.83
2019-03-26T01:19:17.307Z,1.91
2019-03-26T01:21:48.730Z,2.00
2019-03-26T01:24:20.176Z,2.12
2019-03-26T01:26:51.603Z,2.24
2019-03-26T01:29:23.298Z,2.33
2019-03-26T01:31:54.913Z,2.40
2019-03-26T01:34:26.385Z,2.47
2019-03-26T01:36:58.021Z,2.50
2019-03-26T01:39:29.848Z,2.46
2019-03-26T01:42:01.123Z,2.43
2019-03-26T01:44:32.350Z,2.52
2019-03-26T01:47:03.618Z,2.59
2019-03-26T01:49:34.750Z,2.65
2019-03-26T01:52:05.984Z,2.73
2019-03-26T01:54:37.271Z,2.76
2019-03-26T01:57:08.547Z,2.78
2019-03-26T01:59:39.814Z,2.79
2019-03-26T02:02:11.057Z,2.83
2019-03-26T02:04:42.310Z,2.86
2019-03-26T02:07:13.544Z,2.91
2019-03-26T02:09:44.773Z,2.96
2019-03-26T02:12:16.126Z,2.99
2019-03-26T02:14:47.340Z,2.98
2019-03-26T02:17:18.536Z,3.00
2019-03-26T02:19:49.718Z,3.00
2019-03-26T02:22:20.999Z,3.02
2019-03-26T02:24:52.300Z,3.03
2019-03-26T02:27:23.605Z,3.06
2019-03-26T02:29:54.769Z,3.07
2019-03-26T02:32:26.081Z,3.08
2019-03-26T02:34:57.305Z,3.11
2019-03-26T02:37:28.605Z,3.08
2019-03-26T02:39:59.770Z,3.08
2019-03-26T02:42:30.970Z,3.09
2019-03-26T02:45:02.237Z,3.10
2019-03-26T02:47:33.494Z,3.11
2019-03-26T02:50:04.814Z,3.15
2019-03-26T02:52:36.149Z,3.14
2019-03-26T02:55:07.987Z,3.16
2019-03-26T02:57:39.229Z,3.14
2019-03-26T03:00:11.463Z,3.14
2019-03-26T03:02:42.676Z,3.17
2019-03-26T03:05:14.684Z,3.15
2019-03-26T03:07:46.154Z,3.14
2019-03-26T03:10:17.751Z,3.14
2019-03-26T03:12:49.009Z,3.14
2019-03-26T03:15:20.246Z,3.10
2019-03-26T03:17:51.419Z,3.02
2019-03-26T03:20:22.705Z,3.05
2019-03-26T03:22:54.029Z,2.99
2019-03-26T03:25:25.380Z,2.92
2019-03-26T03:27:57.004Z,2.89
2019-03-26T03:30:28.125Z,2.89
2019-03-26T03:32:59.350Z,2.91
2019-03-26T03:35:30.601Z,2.87
2019-03-26T03:38:01.853Z,2.81
2019-03-26T03:40:33.083Z,2.84
2019-03-26T03:43:04.327Z,2.80
2019-03-26T03:45:35.523Z,2.79
2019-03-26T03:48:06.840Z,2.78
2019-03-26T03:50:38.937Z,2.78
2019-03-26T03:53:11.078Z,2.76
2019-03-26T03:55:42.302Z,2.79
2019-03-26T03:58:13.553Z,2.82
2019-03-26T04:00:44.803Z,2.82
2019-03-26T04:03:15.974Z,2.83
2019-03-26T04:05:47.980Z,2.81
2019-03-26T04:08:19.355Z,2.77
2019-03-26T04:10:50.672Z,2.77
2019-03-26T04:13:21.985Z,2.77
2019-03-26T04:15:53.229Z,2.77
2019-03-26T04:18:24.365Z,2.76
2019-03-26T04:20:55.536Z,2.77
2019-03-26T04:23:26.785Z,2.79
2019-03-26T04:25:58.086Z,2.79
2019-03-26T04:28:29.374Z,2.79
2019-03-26T04:31:00.571Z,2.74
2019-03-26T04:33:31.829Z,2.70
2019-03-26T04:36:03.084Z,2.64
2019-03-26T04:38:34.438Z,2.62
2019-03-26T04:41:05.760Z,2.56
2019-03-26T04:43:37.183Z,2.49
2019-03-26T04:46:08.625Z,2.43
2019-03-26T04:48:39.776Z,2.43
2019-03-26T04:51:11.105Z,2.41
2019-03-26T04:53:42.527Z,2.41
2019-03-26T04:56:13.838Z,2.35
2019-03-26T04:58:45.150Z,2.31
2019-03-26T05:01:16.404Z,2.26
2019-03-26T05:03:47.559Z,2.22
2019-03-26T05:06:18.998Z,2.16
2019-03-26T05:08:50.314Z,2.13
2019-03-26T05:11:23.171Z,2.10
2019-03-26T05:13:54.576Z,2.11
2019-03-26T05:16:25.834Z,2.08
2019-03-26T05:18:57.379Z,2.12
2019-03-26T05:21:28.671Z,2.10
2019-03-26T05:24:00.067Z,2.14
2019-03-26T05:26:31.411Z,2.16
2019-03-26T05:29:02.705Z,1.94
2019-03-26T05:31:34.100Z,1.92
2019-03-26T05:34:05.486Z,1.92
2019-03-26T05:36:36.703Z,1.95
2019-03-26T05:39:09.068Z,2.02
2019-03-26T05:41:40.288Z,2.08
2019-03-26T05:44:11.566Z,2.16
2019-03-26T05:46:42.780Z,2.25
2019-03-26T05:49:14.088Z,2.35
2019-03-26T05:51:45.273Z,2.44
2019-03-26T05:54:16.423Z,2.55
2019-03-26T05:56:47.722Z,2.63
2019-03-26T05:59:18.921Z,2.69
2019-03-26T06:01:50.136Z,2.76
2019-03-26T06:04:21.474Z,2.72
2019-03-26T06:07:04.162Z,2.78
2019-03-26T06:09:25.796Z,2.83
2019-03-26T06:11:57.178Z,2.91
2019-03-26T06:14:28.392Z,2.95
2019-03-26T06:16:59.686Z,3.02
2019-03-26T06:19:30.959Z,3.07
2019-03-26T06:22:02.275Z,3.08
2019-03-26T06:24:33.550Z,3.10
2019-03-26T06:27:04.836Z,3.13
2019-03-26T06:29:36.140Z,3.10
2019-03-26T06:32:07.356Z,3.16
2019-03-26T06:34:38.585Z,3.17
2019-03-26T06:37:17.763Z,3.26
2019-03-26T06:39:42.608Z,3.26
2019-03-26T06:42:13.925Z,3.30
2019-03-26T06:44:45.187Z,3.37
2019-03-26T06:47:16.490Z,3.36
2019-03-26T06:49:47.717Z,3.41
2019-03-26T06:52:18.987Z,3.45
2019-03-26T06:54:51.718Z,3.50
2019-03-26T06:57:35.065Z,3.49
2019-03-26T06:59:56.463Z,3.50
2019-03-26T07:02:27.779Z,3.47
2019-03-26T07:04:59.040Z,3.52
2019-03-26T07:07:31.697Z,3.54
2019-03-26T07:10:03.295Z,3.64
2019-03-26T07:12:36.494Z,3.67
2019-03-26T07:15:08.631Z,3.78
2019-03-26T07:17:39.926Z,3.78
2019-03-26T07:20:11.789Z,3.88
2019-03-26T07:22:43.040Z,4.06
2019-03-26T07:25:14.354Z,4.15
2019-03-26T07:28:04.400Z,4.32
2019-03-26T07:30:43.460Z,4.35
2019-03-26T07:33:14.765Z,4.36
2019-03-26T07:35:45.989Z,4.43
2019-03-26T07:38:17.264Z,4.55
2019-03-26T07:40:48.498Z,4.73
2019-03-26T07:43:19.726Z,4.89
2019-03-26T07:45:51.077Z,5.07
2019-03-26T07:48:22.238Z,5.23
2019-03-26T07:50:53.527Z,5.28
2019-03-26T07:53:24.865Z,5.37
2019-03-26T07:55:56.087Z,5.43
2019-03-26T07:58:27.353Z,5.48
2019-03-26T08:00:58.552Z,5.55
2019-03-26T08:03:29.802Z,5.70
2019-03-26T08:06:01.023Z,5.83
2019-03-26T08:08:32.336Z,5.81
2019-03-26T08:11:03.557Z,5.91
2019-03-26T08:13:34.757Z,6.08
2019-03-26T08:16:06.019Z,6.20
2019-03-26T08:18:37.239Z,6.42
2019-03-26T08:21:08.492Z,6.61
2019-03-26T08:23:39.745Z,6.96
2019-03-26T08:26:11.083Z,7.25
2019-03-26T08:28:42.218Z,7.20
2019-03-26T08:31:13.386Z,7.63
2019-03-26T08:33:44.680Z,8.32
2019-03-26T08:36:15.789Z,8.50
2019-03-26T08:38:47.014Z,8.76
2019-03-26T08:41:18.330Z,8.78
2019-03-26T08:43:49.445Z,8.89
2019-03-26T08:46:20.717Z,8.69
2019-03-26T08:48:51.880Z,8.70
2019-03-26T08:51:23.094Z,8.63
2019-03-26T08:53:54.329Z,8.42
2019-03-26T08:56:25.575Z,8.65
2019-03-26T08:58:56.844Z,8.77
2019-03-26T09:01:28.029Z,8.75
2019-03-26T09:03:59.287Z,8.80
2019-03-26T09:06:30.581Z,9.56
2019-03-26T09:09:01.848Z,10.10
2019-03-26T09:11:33.078Z,10.12
2019-03-26T09:14:04.274Z,10.20
2019-03-26T09:16:35.464Z,9.91
2019-03-26T09:19:06.688Z,9.91
2019-03-26T09:21:37.933Z,9.48
2019-03-26T09:24:09.216Z,9.47
2019-03-26T09:26:40.501Z,9.56
2019-03-26T09:29:11.727Z,10.12
2019-03-26T09:31:43.017Z,10.13
2019-03-26T09:34:14.245Z,10.09
2019-03-26T09:36:45.409Z,9.91
2019-03-26T09:39:16.736Z,9.26
2019-03-26T09:41:47.994Z,9.24
2019-03-26T09:44:19.208Z,9.20
2019-03-26T09:46:50.442Z,8.82
2019-03-26T09:49:21.779Z,9.02
2019-03-26T09:51:53.014Z,9.27
2019-03-26T09:54:24.553Z,9.50
2019-03-26T09:56:55.881Z,9.71
2019-03-26T09:59:27.160Z,9.95
2019-03-26T10:01:58.491Z,9.90
2019-03-26T10:04:29.695Z,9.91
2019-03-26T10:07:01.114Z,9.66
2019-03-26T10:09:32.442Z,9.57
2019-03-26T10:12:03.715Z,9.60
2019-03-26T10:14:34.931Z,9.40
2019-03-26T10:17:06.218Z,10.26
2019-03-26T10:19:37.499Z,11.57
2019-03-26T10:22:08.641Z,12.53
2019-03-26T10:24:39.786Z,12.25
2019-03-26T10:27:10.906Z,11.30
2019-03-26T10:29:42.175Z,10.58
2019-03-26T10:32:13.526Z,10.16
2019-03-26T10:34:44.751Z,9.95
2019-03-26T10:37:16.164Z,9.93
2019-03-26T10:39:47.361Z,10.43
2019-03-26T10:42:18.552Z,11.03
2019-03-26T10:44:49.838Z,11.35
2019-03-26T10:47:21.147Z,11.16
2019-03-26T10:49:52.329Z,10.88
2019-03-26T10:52:23.635Z,10.42
2019-03-26T10:54:54.932Z,9.87
2019-03-26T10:57:26.428Z,9.50
2019-03-26T10:59:57.715Z,9.36
2019-03-26T11:02:29.017Z,9.26
2019-03-26T11:05:00.389Z,9.27
2019-03-26T11:07:31.581Z,9.60
2019-03-26T11:10:02.842Z,10.01
2019-03-26T11:12:34.079Z,10.13
2019-03-26T11:15:06.690Z,10.43
2019-03-26T11:17:38.014Z,10.30
2019-03-26T11:20:09.997Z,10.39
2019-03-26T11:22:41.309Z,10.74
2019-03-26T11:25:12.844Z,11.35
2019-03-26T11:27:44.221Z,11.34
2019-03-26T11:30:15.567Z,11.24
2019-03-26T11:32:47.006Z,11.26
2019-03-26T11:35:18.340Z,11.21
2019-03-26T11:37:49.665Z,11.35
2019-03-26T11:40:21.411Z,11.42
2019-03-26T11:42:52.824Z,11.26
2019-03-26T11:45:24.188Z,11.02
2019-03-26T11:47:55.471Z,10.91
2019-03-26T11:50:26.727Z,10.75
2019-03-26T11:52:58.051Z,10.49
2019-03-26T11:55:29.364Z,10.40
2019-03-26T11:58:00.671Z,10.36
2019-03-26T12:00:34.783Z,10.29
2019-03-26T12:03:06.091Z,10.17
2019-03-26T12:05:37.478Z,10.33
2019-03-26T12:08:08.861Z,10.32
2019-03-26T12:10:40.258Z,10.19
2019-03-26T12:13:11.646Z,9.78
2019-03-26T12:15:42.913Z,9.65
2019-03-26T12:18:14.141Z,9.39
2019-03-26T12:20:45.493Z,9.31
2019-03-26T12:23:16.779Z,9.10
2019-03-26T12:25:48.040Z,8.97
2019-03-26T12:28:19.304Z,9.19
2019-03-26T12:30:50.646Z,10.00
2019-03-26T12:33:22.017Z,12.31
2019-03-26T12:35:53.199Z,13.82
2019-03-26T12:38:24.752Z,16.43
2019-03-26T12:40:56.195Z,18.18
2019-03-26T12:43:27.440Z,18.75
2019-03-26T12:46:01.713Z,17.62
2019-03-26T12:48:31.781Z,16.15
2019-03-26T12:51:03.113Z,14.59
2019-03-26T12:53:34.349Z,13.44
2019-03-26T12:56:05.612Z,12.62
2019-03-26T12:58:36.961Z,11.97
2019-03-26T13:01:08.294Z,11.71
2019-03-26T13:03:39.491Z,11.43
2019-03-26T13:06:10.768Z,11.19
2019-03-26T13:08:42.255Z,11.01
2019-03-26T13:11:16.819Z,10.82
2019-03-26T13:13:46.577Z,10.97
2019-03-26T13:16:17.841Z,11.39
2019-03-26T13:18:49.154Z,11.58
2019-03-26T13:21:20.303Z,11.42
2019-03-26T13:23:51.518Z,11.32
2019-03-26T13:26:22.806Z,11.12
2019-03-26T13:28:54.013Z,10.73
2019-03-26T13:31:25.328Z,10.51
2019-03-26T13:33:56.708Z,10.49
2019-03-26T13:36:27.960Z,10.33
2019-03-26T13:38:59.204Z,10.34
2019-03-26T13:41:30.441Z,10.63
2019-03-26T13:44:01.737Z,10.97
2019-03-26T13:46:33.034Z,11.45
2019-03-26T13:49:04.265Z,11.62
2019-03-26T13:51:37.128Z,11.78
2019-03-26T13:54:08.631Z,11.80
2019-03-26T13:56:39.891Z,12.07
2019-03-26T13:59:11.312Z,12.16
2019-03-26T14:01:43.159Z,12.30
2019-03-26T14:04:14.413Z,12.19
2019-03-26T14:06:45.679Z,11.79
2019-03-26T14:09:19.936Z,11.18
2019-03-26T14:11:57.608Z,11.01
2019-03-26T14:14:27.594Z,11.39
2019-03-26T14:17:05.492Z,12.05
2019-03-26T14:19:40.876Z,12.49
2019-03-26T14:22:21.369Z,12.31
2019-03-26T14:25:08.345Z,12.89
2019-03-26T14:27:45.131Z,13.05
2019-03-26T14:30:23.801Z,13.53
2019-03-26T14:33:02.798Z,13.76
2019-03-26T14:35:43.395Z,13.74
2019-03-26T14:38:26.053Z,13.86
2019-03-26T14:41:08.677Z,13.93
2019-03-26T14:43:43.764Z,14.10
2019-03-26T14:46:18.964Z,13.78
2019-03-26T14:48:57.482Z,13.64
2019-03-26T14:51:31.322Z,13.79
2019-03-26T14:54:25.265Z,13.14
2019-03-26T14:56:57.646Z,12.85
2019-03-26T14:59:30.812Z,13.20
2019-03-26T15:02:07.925Z,12.65
2019-03-26T15:04:44.647Z,12.03
2019-03-26T15:07:17.966Z,11.43
2019-03-26T15:09:50.240Z,10.93
2019-03-26T15:12:21.488Z,10.83
2019-03-26T15:14:55.706Z,10.69
2019-03-26T15:17:30.588Z,10.26
2019-03-26T15:20:03.295Z,10.43
2019-03-26T15:22:35.275Z,10.56
2019-03-26T15:25:07.743Z,10.55
2019-03-26T15:27:39.805Z,10.40
2019-03-26T15:30:12.475Z,10.50
2019-03-26T15:32:44.359Z,10.27
2019-03-26T15:35:18.715Z,10.10
2019-03-26T15:37:54.212Z,9.85
2019-03-26T15:40:30.218Z,9.74
2019-03-26T15:43:04.583Z,9.55
2019-03-26T15:45:39.979Z,9.35
2019-03-26T15:48:23.569Z,9.26
2019-03-26T15:50:56.141Z,9.27
2019-03-26T15:53:31.726Z,9.22
2019-03-26T15:56:09.679Z,9.09
2019-03-26T15:58:42.006Z,8.81
2019-03-26T16:01:13.777Z,8.64
2019-03-26T16:03:48.159Z,8.61
2019-03-26T16:06:19.448Z,8.37
2019-03-26T16:08:57.180Z,8.37
2019-03-26T16:11:36.083Z,8.40
2019-03-26T16:14:06.630Z,8.45
2019-03-26T16:16:42.263Z,8.53
2019-03-26T16:19:14.239Z,8.59
2019-03-26T16:21:46.595Z,8.69
2019-03-26T16:24:20.862Z,8.78
2019-03-26T16:26:52.369Z,8.85
2019-03-26T16:29:26.033Z,8.98
2019-03-26T16:31:58.179Z,9.08
2019-03-26T16:34:30.323Z,9.04
2019-03-26T16:37:01.542Z,9.00
2019-03-26T16:39:32.689Z,8.70
2019-03-26T16:42:03.981Z,8.63
2019-03-26T16:44:35.192Z,8.47
2019-03-26T16:47:06.398Z,8.25
2019-03-26T16:49:37.666Z,8.21
2019-03-26T16:52:09.838Z,8.16
2019-03-26T16:54:41.076Z,8.10
2019-03-26T16:57:12.323Z,8.13
2019-03-26T16:59:43.567Z,8.14
2019-03-26T17:02:14.826Z,8.22
2019-03-26T17:04:46.938Z,8.20
2019-03-26T17:07:18.309Z,8.11
2019-03-26T17:09:49.512Z,8.04
2019-03-26T17:12:20.701Z,7.86
2019-03-26T17:14:51.940Z,7.67
2019-03-26T17:17:23.189Z,7.67
2019-03-26T17:19:54.469Z,7.65
2019-03-26T17:22:25.759Z,7.63
2019-03-26T17:24:57.067Z,7.63
2019-03-26T17:27:29.258Z,7.65
2019-03-26T17:30:00.448Z,7.63
2019-03-26T17:32:31.838Z,7.60
2019-03-26T17:35:03.232Z,7.53
2019-03-26T17:37:34.470Z,7.50
2019-03-26T17:40:06.244Z,7.43
2019-03-26T17:42:37.428Z,7.39
2019-03-26T17:45:09.593Z,7.35
2019-03-26T17:47:40.852Z,7.22
2019-03-26T17:50:13.263Z,7.18
2019-03-26T17:52:44.474Z,7.17
2019-03-26T17:55:15.682Z,7.16
2019-03-26T17:57:47.016Z,7.15
2019-03-26T18:00:21.833Z,7.13
2019-03-26T18:02:53.098Z,7.07
2019-03-26T18:05:29.304Z,7.02
2019-03-26T18:08:00.610Z,6.99
2019-03-26T18:10:31.865Z,6.94
2019-03-26T18:13:03.046Z,6.92
2019-03-26T18:15:34.416Z,6.94
2019-03-26T18:18:05.683Z,6.86
2019-03-26T18:20:36.927Z,6.79
2019-03-26T18:23:08.187Z,6.71
2019-03-26T18:25:39.476Z,6.60
2019-03-26T18:28:10.699Z,6.53
2019-03-26T18:30:42.008Z,6.44
2019-03-26T18:33:13.395Z,6.30
2019-03-26T18:35:44.723Z,6.24
2019-03-26T18:38:16.063Z,6.22
2019-03-26T18:40:47.195Z,6.25
2019-03-26T18:43:18.477Z,6.09
2019-03-26T18:45:49.814Z,6.09
2019-03-26T18:48:21.108Z,6.12
2019-03-26T18:50:52.331Z,6.18
2019-03-26T18:53:23.600Z,6.22
2019-03-26T18:55:54.855Z,6.23
2019-03-26T18:58:26.148Z,6.19
2019-03-26T19:00:57.549Z,6.14
2019-03-26T19:03:28.691Z,6.06
2019-03-26T19:06:00.019Z,6.11
2019-03-26T19:08:31.258Z,6.15
2019-03-26T19:11:02.557Z,6.22
2019-03-26T19:13:33.853Z,6.26
2019-03-26T19:16:05.158Z,6.31
2019-03-26T19:18:36.375Z,6.35
2019-03-26T19:21:08.904Z,6.36
2019-03-26T19:23:41.153Z,6.37
2019-03-26T19:26:12.612Z,6.39
2019-03-26T19:28:43.921Z,6.43
2019-03-26T19:31:15.379Z,6.43
2019-03-26T19:33:46.944Z,6.43
2019-03-26T19:36:18.174Z,6.46
2019-03-26T19:38:49.408Z,6.41
2019-03-26T19:41:20.747Z,6.40
2019-03-26T19:43:52.105Z,6.41
2019-03-26T19:46:23.350Z,6.42
2019-03-26T19:48:54.664Z,6.41
2019-03-26T19:51:28.175Z,6.40
2019-03-26T19:53:59.464Z,6.44
2019-03-26T19:56:30.707Z,6.46
2019-03-26T19:59:02.230Z,6.47
2019-03-26T20:01:33.702Z,6.47
2019-03-26T20:04:04.929Z,6.48
2019-03-26T20:06:36.191Z,6.42
2019-03-26T20:09:08.953Z,6.39
2019-03-26T20:11:40.203Z,6.41
2019-03-26T20:14:11.504Z,6.40
2019-03-26T20:16:42.747Z,6.41
2019-03-26T20:19:14.020Z,6.38
2019-03-26T20:21:45.329Z,6.39
2019-03-26T20:24:16.766Z,6.37
2019-03-26T20:26:47.991Z,6.37
2019-03-26T20:29:19.259Z,6.36
2019-03-26T20:31:52.388Z,6.34
2019-03-26T20:34:23.680Z,6.33
2019-03-26T20:36:55.808Z,6.31
2019-03-26T20:39:27.039Z,6.35
2019-03-26T20:41:58.312Z,6.23
2019-03-26T20:44:30.557Z,6.21
2019-03-26T20:47:01.860Z,6.15
2019-03-26T20:49:33.156Z,6.13
2019-03-26T20:52:04.445Z,6.15
2019-03-26T20:54:35.738Z,6.16
2019-03-26T20:57:06.973Z,6.19
2019-03-26T20:59:38.348Z,6.20
2019-03-26T21:02:09.590Z,6.19
2019-03-26T21:04:42.207Z,6.19
2019-03-26T21:07:13.600Z,6.16
2019-03-26T21:09:44.986Z,6.15
2019-03-26T21:12:17.201Z,6.15
2019-03-26T21:14:48.781Z,6.09
2019-03-26T21:17:20.082Z,6.05
2019-03-26T21:19:52.394Z,6.09
2019-03-26T21:22:23.669Z,6.05
2019-03-26T21:24:57.196Z,5.99
2019-03-26T21:27:28.473Z,6.01
2019-03-26T21:30:10.095Z,5.98
2019-03-26T21:32:32.828Z,6.04
2019-03-26T21:35:06.965Z,6.07
2019-03-26T21:37:37.860Z,6.03
2019-03-26T21:40:09.930Z,6.06
2019-03-26T21:42:41.138Z,6.06
2019-03-26T21:45:13.061Z,6.04
2019-03-26T21:47:44.316Z,6.06
2019-03-26T21:50:16.614Z,5.98
2019-03-26T21:52:47.869Z,5.93
2019-03-26T21:55:19.080Z,5.98
2019-03-26T21:57:50.411Z,5.84
2019-03-26T22:00:21.776Z,5.88
2019-03-26T22:02:53.042Z,5.87
2019-03-26T22:05:24.333Z,5.86
2019-03-26T22:07:55.621Z,5.85
2019-03-26T22:10:26.925Z,5.88
2019-03-26T22:12:58.134Z,5.90
2019-03-26T22:15:29.342Z,5.86
2019-03-26T22:18:00.639Z,5.87
2019-03-26T22:20:31.839Z,5.89
2019-03-26T22:23:03.159Z,5.89
2019-03-26T22:25:34.583Z,5.91
2019-03-26T22:28:05.856Z,5.92
2019-03-26T22:30:36.987Z,5.92
2019-03-26T22:33:08.086Z,5.93
2019-03-26T22:35:58.117Z,5.92
2019-03-26T22:38:29.381Z,5.91
2019-03-26T22:41:00.620Z,5.83
2019-03-26T22:43:31.776Z,5.74
2019-03-26T22:46:03.108Z,5.63
2019-03-26T22:48:34.360Z,5.56
2019-03-26T22:51:05.716Z,5.53
2019-03-26T22:53:36.852Z,5.48
2019-03-26T22:56:08.292Z,5.53
2019-03-26T22:58:39.521Z,5.58
2019-03-26T23:01:10.881Z,5.64
2019-03-26T23:03:42.174Z,5.69
2019-03-26T23:06:13.450Z,5.71
2019-03-26T23:08:44.665Z,5.73
2019-03-26T23:11:15.968Z,5.71
2019-03-26T23:13:47.233Z,5.70
2019-03-26T23:16:18.525Z,5.72
2019-03-26T23:18:49.803Z,5.73
2019-03-26T23:21:20.983Z,5.63
2019-03-26T23:23:52.237Z,5.65
2019-03-26T23:26:23.534Z,5.68
2019-03-26T23:28:54.732Z,5.67
2019-03-26T23:31:25.973Z,5.59
2019-03-26T23:33:57.269Z,5.58
2019-03-26T23:36:28.467Z,5.54
2019-03-26T23:38:59.731Z,5.53
2019-03-26T23:41:30.862Z,5.54
2019-03-26T23:44:02.007Z,5.43
2019-03-26T23:46:33.315Z,5.44
2019-03-26T23:49:04.598Z,5.39
2019-03-26T23:51:35.744Z,5.32
2019-03-26T23:54:06.859Z,5.35
2019-03-26T23:56:38.100Z,5.36
2019-03-26T23:59:09.285Z,5.35
